sensor_id;sensor_type;location;lat;lon;timestamp;P1;durP1;ratioP1;P2;durP2;ratioP2
68384;SDS011;55336;43.062;25.626;2023-07-13T00:00:24;6.85;;;6.25;;
68384;SDS011;55336;43.062;25.626;2023-07-13T00:05:19;7.15;;;6.55;;
68384;SDS011;55336;43.062;25.626;2023-07-13T00:07:46;8.80;;;7.35;;
68384;SDS011;55336;43.062;25.626;2023-07-13T00:12:38;6.72;;;6.25;;
68384;SDS011;55336;43.062;25.626;2023-07-13T00:15:05;8.30;;;7.38;;
68384;SDS011;55336;43.062;25.626;2023-07-13T00:17:36;7.28;;;6.60;;
68384;SDS011;55336;43.062;25.626;2023-07-13T00:20:03;7.40;;;6.78;;
68384;SDS011;55336;43.062;25.626;2023-07-13T00:22:29;8.50;;;7.75;;
68384;SDS011;55336;43.062;25.626;2023-07-13T00:27:21;7.63;;;7.03;;
68384;SDS011;55336;43.062;25.626;2023-07-13T00:29:48;8.30;;;7.50;;
68384;SDS011;55336;43.062;25.626;2023-07-13T00:34:39;7.75;;;7.00;;
68384;SDS011;55336;43.062;25.626;2023-07-13T00:39:32;6.55;;;5.95;;
68384;SDS011;55336;43.062;25.626;2023-07-13T00:42:01;6.85;;;6.13;;
68384;SDS011;55336;43.062;25.626;2023-07-13T00:44:27;7.45;;;6.63;;
68384;SDS011;55336;43.062;25.626;2023-07-13T00:54:18;7.40;;;6.70;;
68384;SDS011;55336;43.062;25.626;2023-07-13T00:56:48;7.43;;;6.72;;
68384;SDS011;55336;43.062;25.626;2023-07-13T00:59:17;7.03;;;6.13;;
68384;SDS011;55336;43.062;25.626;2023-07-13T01:01:45;6.55;;;6.00;;
68384;SDS011;55336;43.062;25.626;2023-07-13T01:04:11;6.30;;;5.72;;
68384;SDS011;55336;43.062;25.626;2023-07-13T01:06:38;7.40;;;6.80;;
68384;SDS011;55336;43.062;25.626;2023-07-13T01:09:06;7.93;;;7.10;;
68384;SDS011;55336;43.062;25.626;2023-07-13T01:11:33;7.95;;;7.15;;
68384;SDS011;55336;43.062;25.626;2023-07-13T01:14:00;6.03;;;5.53;;
68384;SDS011;55336;43.062;25.626;2023-07-13T01:16:27;7.63;;;6.82;;
68384;SDS011;55336;43.062;25.626;2023-07-13T01:18:56;6.75;;;6.05;;
68384;SDS011;55336;43.062;25.626;2023-07-13T01:21:27;6.65;;;6.00;;
68384;SDS011;55336;43.062;25.626;2023-07-13T01:23:54;10.57;;;6.05;;
68384;SDS011;55336;43.062;25.626;2023-07-13T01:26:21;7.72;;;6.93;;
68384;SDS011;55336;43.062;25.626;2023-07-13T01:31:12;8.32;;;7.53;;
68384;SDS011;55336;43.062;25.626;2023-07-13T01:36:08;6.05;;;5.60;;
68384;SDS011;55336;43.062;25.626;2023-07-13T01:38:35;6.82;;;6.22;;
68384;SDS011;55336;43.062;25.626;2023-07-13T01:41:02;11.23;;;6.78;;
68384;SDS011;55336;43.062;25.626;2023-07-13T01:43:28;6.15;;;5.65;;
68384;SDS011;55336;43.062;25.626;2023-07-13T01:45:54;7.03;;;6.43;;
68384;SDS011;55336;43.062;25.626;2023-07-13T01:50:47;6.70;;;6.05;;
68384;SDS011;55336;43.062;25.626;2023-07-13T01:53:13;6.45;;;5.93;;
68384;SDS011;55336;43.062;25.626;2023-07-13T01:58:05;6.72;;;6.15;;
68384;SDS011;55336;43.062;25.626;2023-07-13T02:00:31;7.03;;;6.40;;
68384;SDS011;55336;43.062;25.626;2023-07-13T02:02:58;7.05;;;6.40;;
68384;SDS011;55336;43.062;25.626;2023-07-13T02:07:49;5.97;;;5.47;;
68384;SDS011;55336;43.062;25.626;2023-07-13T02:12:41;6.47;;;5.97;;
68384;SDS011;55336;43.062;25.626;2023-07-13T02:15:08;7.18;;;6.57;;
68384;SDS011;55336;43.062;25.626;2023-07-13T02:17:35;7.70;;;7.00;;
68384;SDS011;55336;43.062;25.626;2023-07-13T02:20:01;8.75;;;7.07;;
68384;SDS011;55336;43.062;25.626;2023-07-13T02:22:28;7.68;;;6.95;;
68384;SDS011;55336;43.062;25.626;2023-07-13T02:27:19;7.30;;;6.70;;
68384;SDS011;55336;43.062;25.626;2023-07-13T02:32:11;7.57;;;6.75;;
68384;SDS011;55336;43.062;25.626;2023-07-13T02:34:40;8.18;;;7.40;;
68384;SDS011;55336;43.062;25.626;2023-07-13T02:37:06;7.22;;;6.50;;
68384;SDS011;55336;43.062;25.626;2023-07-13T02:41:58;7.60;;;7.00;;
68384;SDS011;55336;43.062;25.626;2023-07-13T02:44:25;7.80;;;7.13;;
68384;SDS011;55336;43.062;25.626;2023-07-13T02:46:51;9.02;;;6.93;;
68384;SDS011;55336;43.062;25.626;2023-07-13T02:51:43;6.78;;;6.18;;
68384;SDS011;55336;43.062;25.626;2023-07-13T02:56:35;8.15;;;7.43;;
68384;SDS011;55336;43.062;25.626;2023-07-13T02:59:03;8.23;;;7.40;;
68384;SDS011;55336;43.062;25.626;2023-07-13T03:03:59;8.00;;;6.80;;
68384;SDS011;55336;43.062;25.626;2023-07-13T03:08:55;8.52;;;7.78;;
68384;SDS011;55336;43.062;25.626;2023-07-13T03:13:47;11.05;;;7.13;;
68384;SDS011;55336;43.062;25.626;2023-07-13T03:16:13;8.32;;;7.22;;
68384;SDS011;55336;43.062;25.626;2023-07-13T03:18:40;7.95;;;7.18;;
68384;SDS011;55336;43.062;25.626;2023-07-13T03:23:32;7.35;;;6.65;;
68384;SDS011;55336;43.062;25.626;2023-07-13T03:28:44;7.43;;;6.72;;
68384;SDS011;55336;43.062;25.626;2023-07-13T03:33:37;8.82;;;8.02;;
68384;SDS011;55336;43.062;25.626;2023-07-13T03:38:30;7.53;;;6.82;;
68384;SDS011;55336;43.062;25.626;2023-07-13T03:40:57;9.15;;;6.47;;
68384;SDS011;55336;43.062;25.626;2023-07-13T03:45:48;7.90;;;7.10;;
68384;SDS011;55336;43.062;25.626;2023-07-13T03:50:40;7.82;;;7.20;;
68384;SDS011;55336;43.062;25.626;2023-07-13T03:55:32;9.15;;;7.03;;
68384;SDS011;55336;43.062;25.626;2023-07-13T04:00:43;7.45;;;6.72;;
68384;SDS011;55336;43.062;25.626;2023-07-13T04:05:35;9.05;;;7.32;;
68384;SDS011;55336;43.062;25.626;2023-07-13T04:08:01;7.97;;;7.18;;
68384;SDS011;55336;43.062;25.626;2023-07-13T04:12:55;7.78;;;7.05;;
68384;SDS011;55336;43.062;25.626;2023-07-13T04:17:46;8.20;;;6.95;;
68384;SDS011;55336;43.062;25.626;2023-07-13T04:22:37;8.70;;;7.55;;
68384;SDS011;55336;43.062;25.626;2023-07-13T04:27:30;10.82;;;8.35;;
68384;SDS011;55336;43.062;25.626;2023-07-13T04:32:21;8.77;;;6.85;;
68384;SDS011;55336;43.062;25.626;2023-07-13T04:37:18;10.52;;;8.70;;
68384;SDS011;55336;43.062;25.626;2023-07-13T04:39:45;20.17;;;9.48;;
68384;SDS011;55336;43.062;25.626;2023-07-13T04:44:36;9.68;;;8.48;;
68384;SDS011;55336;43.062;25.626;2023-07-13T04:49:28;9.15;;;8.15;;
68384;SDS011;55336;43.062;25.626;2023-07-13T04:54:20;10.68;;;8.95;;
68384;SDS011;55336;43.062;25.626;2023-07-13T04:56:46;14.13;;;9.63;;
68384;SDS011;55336;43.062;25.626;2023-07-13T05:01:38;9.35;;;8.35;;
68384;SDS011;55336;43.062;25.626;2023-07-13T05:06:30;14.40;;;9.45;;
68384;SDS011;55336;43.062;25.626;2023-07-13T05:08:56;9.73;;;8.15;;
68384;SDS011;55336;43.062;25.626;2023-07-13T05:13:49;14.48;;;8.32;;
68384;SDS011;55336;43.062;25.626;2023-07-13T05:18:41;9.77;;;7.93;;
68384;SDS011;55336;43.062;25.626;2023-07-13T05:21:08;14.30;;;8.25;;
68384;SDS011;55336;43.062;25.626;2023-07-13T05:23:36;8.10;;;7.28;;
68384;SDS011;55336;43.062;25.626;2023-07-13T05:26:02;9.27;;;7.55;;
68384;SDS011;55336;43.062;25.626;2023-07-13T05:28:30;9.93;;;8.93;;
68384;SDS011;55336;43.062;25.626;2023-07-13T05:30:56;11.18;;;9.02;;
68384;SDS011;55336;43.062;25.626;2023-07-13T05:33:22;12.05;;;8.98;;
68384;SDS011;55336;43.062;25.626;2023-07-13T05:35:49;10.45;;;8.88;;
68384;SDS011;55336;43.062;25.626;2023-07-13T05:38:15;7.75;;;6.95;;
68384;SDS011;55336;43.062;25.626;2023-07-13T05:40:44;8.02;;;6.72;;
68384;SDS011;55336;43.062;25.626;2023-07-13T05:43:11;11.18;;;8.30;;
68384;SDS011;55336;43.062;25.626;2023-07-13T05:45:37;13.10;;;8.40;;
68384;SDS011;55336;43.062;25.626;2023-07-13T05:48:03;9.77;;;7.80;;
68384;SDS011;55336;43.062;25.626;2023-07-13T05:50:29;7.93;;;6.32;;
68384;SDS011;55336;43.062;25.626;2023-07-13T05:52:54;7.63;;;6.70;;
68384;SDS011;55336;43.062;25.626;2023-07-13T05:55:21;8.38;;;6.63;;
68384;SDS011;55336;43.062;25.626;2023-07-13T05:57:47;7.18;;;6.10;;
68384;SDS011;55336;43.062;25.626;2023-07-13T06:00:13;10.05;;;6.57;;
68384;SDS011;55336;43.062;25.626;2023-07-13T06:02:39;12.93;;;6.22;;
68384;SDS011;55336;43.062;25.626;2023-07-13T06:05:05;11.02;;;7.22;;
68384;SDS011;55336;43.062;25.626;2023-07-13T06:07:31;7.20;;;5.85;;
68384;SDS011;55336;43.062;25.626;2023-07-13T06:09:57;6.63;;;5.97;;
68384;SDS011;55336;43.062;25.626;2023-07-13T06:12:24;7.38;;;5.95;;
68384;SDS011;55336;43.062;25.626;2023-07-13T06:14:50;6.82;;;5.25;;
68384;SDS011;55336;43.062;25.626;2023-07-13T06:17:16;6.95;;;5.45;;
68384;SDS011;55336;43.062;25.626;2023-07-13T06:19:43;7.55;;;6.85;;
68384;SDS011;55336;43.062;25.626;2023-07-13T06:22:08;5.80;;;5.07;;
68384;SDS011;55336;43.062;25.626;2023-07-13T06:24:34;7.68;;;5.35;;
68384;SDS011;55336;43.062;25.626;2023-07-13T06:27:00;5.78;;;5.28;;
68384;SDS011;55336;43.062;25.626;2023-07-13T06:29:26;5.20;;;4.78;;
68384;SDS011;55336;43.062;25.626;2023-07-13T06:31:52;5.15;;;4.63;;
68384;SDS011;55336;43.062;25.626;2023-07-13T06:34:18;5.63;;;4.80;;
68384;SDS011;55336;43.062;25.626;2023-07-13T06:36:44;5.68;;;4.97;;
68384;SDS011;55336;43.062;25.626;2023-07-13T06:39:10;5.72;;;5.05;;
68384;SDS011;55336;43.062;25.626;2023-07-13T06:41:35;7.32;;;4.88;;
68384;SDS011;55336;43.062;25.626;2023-07-13T06:44:03;7.05;;;4.35;;
68384;SDS011;55336;43.062;25.626;2023-07-13T06:46:29;6.43;;;4.68;;
68384;SDS011;55336;43.062;25.626;2023-07-13T06:48:55;4.72;;;4.32;;
68384;SDS011;55336;43.062;25.626;2023-07-13T06:51:24;4.88;;;4.38;;
68384;SDS011;55336;43.062;25.626;2023-07-13T06:53:51;4.75;;;4.30;;
68384;SDS011;55336;43.062;25.626;2023-07-13T06:56:17;9.43;;;4.82;;
68384;SDS011;55336;43.062;25.626;2023-07-13T06:58:43;5.93;;;5.20;;
68384;SDS011;55336;43.062;25.626;2023-07-13T07:01:09;5.50;;;4.95;;
68384;SDS011;55336;43.062;25.626;2023-07-13T07:03:35;4.93;;;4.53;;
68384;SDS011;55336;43.062;25.626;2023-07-13T07:06:10;5.13;;;4.63;;
68384;SDS011;55336;43.062;25.626;2023-07-13T07:08:40;4.22;;;3.75;;
68384;SDS011;55336;43.062;25.626;2023-07-13T07:11:08;5.38;;;4.85;;
68384;SDS011;55336;43.062;25.626;2023-07-13T07:13:36;5.93;;;4.53;;
68384;SDS011;55336;43.062;25.626;2023-07-13T07:16:02;5.38;;;4.82;;
68384;SDS011;55336;43.062;25.626;2023-07-13T07:18:28;4.63;;;4.22;;
68384;SDS011;55336;43.062;25.626;2023-07-13T07:20:54;4.13;;;3.83;;
68384;SDS011;55336;43.062;25.626;2023-07-13T07:23:20;4.63;;;4.10;;
68384;SDS011;55336;43.062;25.626;2023-07-13T07:25:45;4.25;;;3.85;;
68384;SDS011;55336;43.062;25.626;2023-07-13T07:28:15;4.85;;;4.20;;
68384;SDS011;55336;43.062;25.626;2023-07-13T07:30:44;8.07;;;4.35;;
68384;SDS011;55336;43.062;25.626;2023-07-13T07:33:11;4.28;;;3.88;;
68384;SDS011;55336;43.062;25.626;2023-07-13T07:35:37;4.05;;;3.75;;
68384;SDS011;55336;43.062;25.626;2023-07-13T07:38:02;4.28;;;3.78;;
68384;SDS011;55336;43.062;25.626;2023-07-13T07:40:29;4.18;;;3.22;;
68384;SDS011;55336;43.062;25.626;2023-07-13T07:42:54;3.20;;;3.00;;
68384;SDS011;55336;43.062;25.626;2023-07-13T07:45:21;4.25;;;3.15;;
68384;SDS011;55336;43.062;25.626;2023-07-13T07:47:46;3.63;;;3.30;;
68384;SDS011;55336;43.062;25.626;2023-07-13T07:50:13;3.97;;;3.67;;
68384;SDS011;55336;43.062;25.626;2023-07-13T07:52:39;3.88;;;3.58;;
68384;SDS011;55336;43.062;25.626;2023-07-13T07:55:05;3.75;;;3.45;;
68384;SDS011;55336;43.062;25.626;2023-07-13T07:57:32;3.40;;;3.13;;
68384;SDS011;55336;43.062;25.626;2023-07-13T07:59:58;3.70;;;3.40;;
68384;SDS011;55336;43.062;25.626;2023-07-13T08:02:26;4.57;;;3.67;;
68384;SDS011;55336;43.062;25.626;2023-07-13T08:04:52;3.40;;;3.10;;
68384;SDS011;55336;43.062;25.626;2023-07-13T08:09:53;3.83;;;3.53;;
68384;SDS011;55336;43.062;25.626;2023-07-13T08:12:20;3.67;;;3.38;;
68384;SDS011;55336;43.062;25.626;2023-07-13T08:17:32;4.10;;;3.53;;
68384;SDS011;55336;43.062;25.626;2023-07-13T08:20:23;3.22;;;3.03;;
68384;SDS011;55336;43.062;25.626;2023-07-13T08:22:49;4.05;;;3.75;;
68384;SDS011;55336;43.062;25.626;2023-07-13T08:25:15;4.25;;;3.58;;
68384;SDS011;55336;43.062;25.626;2023-07-13T08:27:44;4.43;;;4.03;;
68384;SDS011;55336;43.062;25.626;2023-07-13T08:30:10;4.65;;;4.25;;
68384;SDS011;55336;43.062;25.626;2023-07-13T08:32:37;8.20;;;3.42;;
68384;SDS011;55336;43.062;25.626;2023-07-13T08:35:05;3.05;;;2.72;;
68384;SDS011;55336;43.062;25.626;2023-07-13T08:37:35;3.40;;;3.05;;
68384;SDS011;55336;43.062;25.626;2023-07-13T08:40:00;3.25;;;3.05;;
68384;SDS011;55336;43.062;25.626;2023-07-13T08:42:39;2.78;;;2.58;;
68384;SDS011;55336;43.062;25.626;2023-07-13T08:45:17;3.00;;;2.72;;
68384;SDS011;55336;43.062;25.626;2023-07-13T08:47:57;3.15;;;2.92;;
68384;SDS011;55336;43.062;25.626;2023-07-13T08:50:34;3.03;;;2.75;;
68384;SDS011;55336;43.062;25.626;2023-07-13T08:53:29;3.35;;;3.03;;
68384;SDS011;55336;43.062;25.626;2023-07-13T08:56:01;3.70;;;2.75;;
68384;SDS011;55336;43.062;25.626;2023-07-13T08:58:30;2.30;;;2.10;;
68384;SDS011;55336;43.062;25.626;2023-07-13T09:03:30;2.53;;;2.35;;
68384;SDS011;55336;43.062;25.626;2023-07-13T09:06:06;1.88;;;1.75;;
68384;SDS011;55336;43.062;25.626;2023-07-13T09:08:56;4.05;;;2.25;;
68384;SDS011;55336;43.062;25.626;2023-07-13T09:14:51;2.35;;;1.95;;
68384;SDS011;55336;43.062;25.626;2023-07-13T09:17:22;2.10;;;2.00;;
68384;SDS011;55336;43.062;25.626;2023-07-13T09:19:59;2.47;;;2.25;;
68384;SDS011;55336;43.062;25.626;2023-07-13T09:22:49;2.33;;;2.15;;
68384;SDS011;55336;43.062;25.626;2023-07-13T09:25:49;2.40;;;2.20;;
68384;SDS011;55336;43.062;25.626;2023-07-13T09:30:53;3.13;;;2.83;;
68384;SDS011;55336;43.062;25.626;2023-07-13T09:33:42;1.90;;;1.80;;
68384;SDS011;55336;43.062;25.626;2023-07-13T09:38:49;2.75;;;2.30;;
68384;SDS011;55336;43.062;25.626;2023-07-13T09:44:36;2.17;;;2.00;;
68384;SDS011;55336;43.062;25.626;2023-07-13T09:47:16;2.75;;;1.67;;
68384;SDS011;55336;43.062;25.626;2023-07-13T09:52:27;2.47;;;1.90;;
68384;SDS011;55336;43.062;25.626;2023-07-13T09:55:22;2.22;;;2.03;;
68384;SDS011;55336;43.062;25.626;2023-07-13T09:57:52;2.53;;;2.33;;
68384;SDS011;55336;43.062;25.626;2023-07-13T10:00:22;1.95;;;1.80;;
68384;SDS011;55336;43.062;25.626;2023-07-13T10:03:01;2.67;;;1.75;;
68384;SDS011;55336;43.062;25.626;2023-07-13T10:05:37;1.83;;;1.73;;
68384;SDS011;55336;43.062;25.626;2023-07-13T10:08:09;1.75;;;1.63;;
68384;SDS011;55336;43.062;25.626;2023-07-13T10:10:57;2.13;;;1.92;;
68384;SDS011;55336;43.062;25.626;2023-07-13T10:13:34;3.20;;;2.30;;
68384;SDS011;55336;43.062;25.626;2023-07-13T10:19:32;2.35;;;2.15;;
68384;SDS011;55336;43.062;25.626;2023-07-13T10:22:22;2.50;;;2.30;;
68384;SDS011;55336;43.062;25.626;2023-07-13T10:24:54;2.13;;;1.92;;
68384;SDS011;55336;43.062;25.626;2023-07-13T10:27:23;2.53;;;2.20;;
68384;SDS011;55336;43.062;25.626;2023-07-13T10:30:02;1.52;;;1.42;;
68384;SDS011;55336;43.062;25.626;2023-07-13T10:33:32;2.75;;;1.90;;
68384;SDS011;55336;43.062;25.626;2023-07-13T10:38:50;2.58;;;1.95;;
68384;SDS011;55336;43.062;25.626;2023-07-13T10:41:19;1.83;;;1.67;;
68384;SDS011;55336;43.062;25.626;2023-07-13T10:43:50;2.85;;;2.10;;
68384;SDS011;55336;43.062;25.626;2023-07-13T10:46:47;1.98;;;1.70;;
68384;SDS011;55336;43.062;25.626;2023-07-13T10:49:16;1.65;;;1.55;;
68384;SDS011;55336;43.062;25.626;2023-07-13T10:51:43;5.22;;;2.10;;
68384;SDS011;55336;43.062;25.626;2023-07-13T10:56:52;2.67;;;1.88;;
68384;SDS011;55336;43.062;25.626;2023-07-13T10:59:35;3.50;;;2.65;;
68384;SDS011;55336;43.062;25.626;2023-07-13T11:04:27;2.60;;;2.05;;
68384;SDS011;55336;43.062;25.626;2023-07-13T11:07:10;1.77;;;1.67;;
68384;SDS011;55336;43.062;25.626;2023-07-13T11:09:43;3.70;;;2.08;;
68384;SDS011;55336;43.062;25.626;2023-07-13T11:15:06;1.83;;;1.58;;
68384;SDS011;55336;43.062;25.626;2023-07-13T11:17:54;2.25;;;1.60;;
68384;SDS011;55336;43.062;25.626;2023-07-13T11:25:42;1.63;;;1.52;;
68384;SDS011;55336;43.062;25.626;2023-07-13T11:30:46;1.77;;;1.67;;
68384;SDS011;55336;43.062;25.626;2023-07-13T11:33:25;1.30;;;1.20;;
68384;SDS011;55336;43.062;25.626;2023-07-13T11:36:18;1.10;;;1.10;;
68384;SDS011;55336;43.062;25.626;2023-07-13T11:41:30;1.63;;;1.52;;
68384;SDS011;55336;43.062;25.626;2023-07-13T11:44:07;1.55;;;1.45;;
68384;SDS011;55336;43.062;25.626;2023-07-13T11:46:38;1.38;;;1.33;;
68384;SDS011;55336;43.062;25.626;2023-07-13T11:49:11;2.00;;;1.80;;
68384;SDS011;55336;43.062;25.626;2023-07-13T11:51:43;1.55;;;1.45;;
68384;SDS011;55336;43.062;25.626;2023-07-13T11:54:24;1.05;;;0.93;;
68384;SDS011;55336;43.062;25.626;2023-07-13T11:57:00;1.92;;;1.73;;
68384;SDS011;55336;43.062;25.626;2023-07-13T11:59:31;1.63;;;1.52;;
68384;SDS011;55336;43.062;25.626;2023-07-13T12:02:24;2.47;;;1.85;;
68384;SDS011;55336;43.062;25.626;2023-07-13T12:04:55;2.10;;;1.90;;
68384;SDS011;55336;43.062;25.626;2023-07-13T12:07:22;2.72;;;2.00;;
68384;SDS011;55336;43.062;25.626;2023-07-13T12:15:22;2.75;;;1.42;;
68384;SDS011;55336;43.062;25.626;2023-07-13T12:21:12;2.17;;;1.58;;
68384;SDS011;55336;43.062;25.626;2023-07-13T12:23:43;1.95;;;1.58;;
68384;SDS011;55336;43.062;25.626;2023-07-13T12:26:10;2.08;;;1.35;;
68384;SDS011;55336;43.062;25.626;2023-07-13T12:35:16;1.17;;;1.10;;
68384;SDS011;55336;43.062;25.626;2023-07-13T12:38:01;2.45;;;1.80;;
68384;SDS011;55336;43.062;25.626;2023-07-13T12:40:31;2.30;;;1.48;;
68384;SDS011;55336;43.062;25.626;2023-07-13T12:43:16;2.47;;;2.15;;
68384;SDS011;55336;43.062;25.626;2023-07-13T12:45:56;5.05;;;1.67;;
68384;SDS011;55336;43.062;25.626;2023-07-13T12:48:41;1.53;;;1.33;;
68384;SDS011;55336;43.062;25.626;2023-07-13T12:51:11;1.88;;;1.77;;
68384;SDS011;55336;43.062;25.626;2023-07-13T12:53:43;1.63;;;1.50;;
68384;SDS011;55336;43.062;25.626;2023-07-13T13:03:04;1.65;;;1.55;;
68384;SDS011;55336;43.062;25.626;2023-07-13T13:06:01;2.15;;;1.85;;
68384;SDS011;55336;43.062;25.626;2023-07-13T13:08:35;1.77;;;1.67;;
68384;SDS011;55336;43.062;25.626;2023-07-13T13:11:22;2.40;;;1.38;;
68384;SDS011;55336;43.062;25.626;2023-07-13T13:29:39;2.70;;;2.50;;
68384;SDS011;55336;43.062;25.626;2023-07-13T13:33:18;2.25;;;1.90;;
68384;SDS011;55336;43.062;25.626;2023-07-13T13:36:38;1.77;;;1.67;;
68384;SDS011;55336;43.062;25.626;2023-07-13T13:46:58;1.77;;;1.67;;
68384;SDS011;55336;43.062;25.626;2023-07-13T13:49:25;1.75;;;1.65;;
68384;SDS011;55336;43.062;25.626;2023-07-13T13:51:53;2.90;;;1.58;;
68384;SDS011;55336;43.062;25.626;2023-07-13T13:54:20;2.20;;;2.00;;
68384;SDS011;55336;43.062;25.626;2023-07-13T13:56:51;2.17;;;1.98;;
68384;SDS011;55336;43.062;25.626;2023-07-13T13:59:18;1.70;;;1.60;;
68384;SDS011;55336;43.062;25.626;2023-07-13T14:01:47;2.05;;;1.83;;
68384;SDS011;55336;43.062;25.626;2023-07-13T14:04:20;3.17;;;1.30;;
68384;SDS011;55336;43.062;25.626;2023-07-13T14:06:50;1.70;;;1.60;;
68384;SDS011;55336;43.062;25.626;2023-07-13T14:09:24;1.60;;;1.50;;
68384;SDS011;55336;43.062;25.626;2023-07-13T14:11:54;3.28;;;2.10;;
68384;SDS011;55336;43.062;25.626;2023-07-13T14:15:06;1.75;;;1.65;;
68384;SDS011;55336;43.062;25.626;2023-07-13T14:50:53;1.83;;;1.73;;
68384;SDS011;55336;43.062;25.626;2023-07-13T14:53:21;2.05;;;1.85;;
68384;SDS011;55336;43.062;25.626;2023-07-13T14:55:47;3.50;;;1.83;;
68384;SDS011;55336;43.062;25.626;2023-07-13T14:58:13;1.50;;;1.40;;
68384;SDS011;55336;43.062;25.626;2023-07-13T15:00:39;5.43;;;2.20;;
68384;SDS011;55336;43.062;25.626;2023-07-13T15:03:05;2.25;;;1.77;;
68384;SDS011;55336;43.062;25.626;2023-07-13T15:05:47;1.70;;;1.60;;
68384;SDS011;55336;43.062;25.626;2023-07-13T15:08:13;2.05;;;1.90;;
68384;SDS011;55336;43.062;25.626;2023-07-13T15:10:41;1.70;;;1.60;;
68384;SDS011;55336;43.062;25.626;2023-07-13T15:15:41;2.38;;;1.85;;
68384;SDS011;55336;43.062;25.626;2023-07-13T15:18:09;1.55;;;1.48;;
68384;SDS011;55336;43.062;25.626;2023-07-13T15:20:37;1.75;;;1.65;;
68384;SDS011;55336;43.062;25.626;2023-07-13T15:23:04;1.90;;;1.70;;
68384;SDS011;55336;43.062;25.626;2023-07-13T15:25:32;1.65;;;1.55;;
68384;SDS011;55336;43.062;25.626;2023-07-13T15:27:59;1.75;;;1.65;;
68384;SDS011;55336;43.062;25.626;2023-07-13T15:30:27;1.80;;;1.70;;
68384;SDS011;55336;43.062;25.626;2023-07-13T15:32:58;4.13;;;2.17;;
68384;SDS011;55336;43.062;25.626;2023-07-13T15:35:33;2.10;;;1.92;;
68384;SDS011;55336;43.062;25.626;2023-07-13T15:37:59;1.63;;;1.50;;
68384;SDS011;55336;43.062;25.626;2023-07-13T15:40:25;3.08;;;2.25;;
68384;SDS011;55336;43.062;25.626;2023-07-13T15:42:51;2.67;;;1.90;;
68384;SDS011;55336;43.062;25.626;2023-07-13T15:45:18;2.58;;;2.38;;
68384;SDS011;55336;43.062;25.626;2023-07-13T15:47:46;2.05;;;1.85;;
68384;SDS011;55336;43.062;25.626;2023-07-13T15:50:14;2.65;;;2.45;;
68384;SDS011;55336;43.062;25.626;2023-07-13T15:52:45;2.20;;;2.00;;
68384;SDS011;55336;43.062;25.626;2023-07-13T15:55:14;3.55;;;1.92;;
68384;SDS011;55336;43.062;25.626;2023-07-13T15:57:41;2.90;;;2.38;;
68384;SDS011;55336;43.062;25.626;2023-07-13T16:00:14;2.33;;;2.13;;
68384;SDS011;55336;43.062;25.626;2023-07-13T16:02:49;2.17;;;2.03;;
68384;SDS011;55336;43.062;25.626;2023-07-13T16:05:16;3.50;;;2.22;;
68384;SDS011;55336;43.062;25.626;2023-07-13T16:07:44;2.92;;;2.20;;
68384;SDS011;55336;43.062;25.626;2023-07-13T16:10:15;1.80;;;1.63;;
68384;SDS011;55336;43.062;25.626;2023-07-13T16:12:45;2.20;;;1.98;;
68384;SDS011;55336;43.062;25.626;2023-07-13T16:15:13;2.38;;;2.08;;
68384;SDS011;55336;43.062;25.626;2023-07-13T16:17:41;3.75;;;2.53;;
68384;SDS011;55336;43.062;25.626;2023-07-13T16:20:08;8.90;;;3.35;;
68384;SDS011;55336;43.062;25.626;2023-07-13T16:22:38;2.55;;;2.20;;
68384;SDS011;55336;43.062;25.626;2023-07-13T16:25:18;2.38;;;2.15;;
68384;SDS011;55336;43.062;25.626;2023-07-13T16:27:46;3.35;;;2.33;;
68384;SDS011;55336;43.062;25.626;2023-07-13T16:30:17;6.75;;;2.50;;
68384;SDS011;55336;43.062;25.626;2023-07-13T16:32:47;6.38;;;2.85;;
68384;SDS011;55336;43.062;25.626;2023-07-13T16:35:17;2.67;;;2.47;;
68384;SDS011;55336;43.062;25.626;2023-07-13T16:37:44;2.60;;;2.10;;
68384;SDS011;55336;43.062;25.626;2023-07-13T16:40:18;2.58;;;2.38;;
68384;SDS011;55336;43.062;25.626;2023-07-13T16:42:47;2.70;;;2.50;;
68384;SDS011;55336;43.062;25.626;2023-07-13T16:45:18;2.85;;;2.55;;
68384;SDS011;55336;43.062;25.626;2023-07-13T16:47:46;3.42;;;3.10;;
68384;SDS011;55336;43.062;25.626;2023-07-13T16:50:16;5.53;;;3.13;;
68384;SDS011;55336;43.062;25.626;2023-07-13T16:52:44;3.67;;;3.38;;
68384;SDS011;55336;43.062;25.626;2023-07-13T16:55:12;6.75;;;3.75;;
68384;SDS011;55336;43.062;25.626;2023-07-13T16:57:42;2.92;;;2.65;;
68384;SDS011;55336;43.062;25.626;2023-07-13T17:00:15;3.58;;;2.90;;
68384;SDS011;55336;43.062;25.626;2023-07-13T17:02:43;3.88;;;3.22;;
68384;SDS011;55336;43.062;25.626;2023-07-13T17:05:10;6.35;;;3.25;;
68384;SDS011;55336;43.062;25.626;2023-07-13T17:07:39;2.83;;;2.42;;
68384;SDS011;55336;43.062;25.626;2023-07-13T17:10:15;3.03;;;2.42;;
68384;SDS011;55336;43.062;25.626;2023-07-13T17:12:44;3.40;;;2.05;;
68384;SDS011;55336;43.062;25.626;2023-07-13T17:15:11;3.13;;;2.70;;
68384;SDS011;55336;43.062;25.626;2023-07-13T17:17:38;2.53;;;2.33;;
68384;SDS011;55336;43.062;25.626;2023-07-13T17:20:14;2.88;;;2.53;;
68384;SDS011;55336;43.062;25.626;2023-07-13T17:22:52;2.95;;;2.45;;
68384;SDS011;55336;43.062;25.626;2023-07-13T17:25:19;3.50;;;3.05;;
68384;SDS011;55336;43.062;25.626;2023-07-13T17:27:46;2.95;;;2.67;;
68384;SDS011;55336;43.062;25.626;2023-07-13T17:30:16;3.13;;;2.45;;
68384;SDS011;55336;43.062;25.626;2023-07-13T17:32:44;2.75;;;2.55;;
68384;SDS011;55336;43.062;25.626;2023-07-13T17:35:15;2.88;;;2.67;;
68384;SDS011;55336;43.062;25.626;2023-07-13T17:37:46;3.00;;;2.78;;
68384;SDS011;55336;43.062;25.626;2023-07-13T17:40:14;4.28;;;3.05;;
68384;SDS011;55336;43.062;25.626;2023-07-13T17:42:44;8.95;;;3.08;;
68384;SDS011;55336;43.062;25.626;2023-07-13T17:45:11;3.20;;;2.95;;
68384;SDS011;55336;43.062;25.626;2023-07-13T17:47:45;4.28;;;2.75;;
68384;SDS011;55336;43.062;25.626;2023-07-13T17:50:20;3.08;;;2.88;;
68384;SDS011;55336;43.062;25.626;2023-07-13T17:53:01;5.70;;;2.97;;
68384;SDS011;55336;43.062;25.626;2023-07-13T17:55:36;3.05;;;2.80;;
68384;SDS011;55336;43.062;25.626;2023-07-13T17:58:02;4.07;;;3.05;;
68384;SDS011;55336;43.062;25.626;2023-07-13T18:00:33;4.38;;;3.60;;
68384;SDS011;55336;43.062;25.626;2023-07-13T18:03:03;2.88;;;2.58;;
68384;SDS011;55336;43.062;25.626;2023-07-13T18:05:41;3.30;;;3.08;;
68384;SDS011;55336;43.062;25.626;2023-07-13T18:08:40;3.95;;;2.58;;
68384;SDS011;55336;43.062;25.626;2023-07-13T18:11:00;3.05;;;2.75;;
68384;SDS011;55336;43.062;25.626;2023-07-13T18:13:28;3.22;;;2.95;;
68384;SDS011;55336;43.062;25.626;2023-07-13T18:15:56;3.05;;;2.75;;
68384;SDS011;55336;43.062;25.626;2023-07-13T18:18:23;2.97;;;2.78;;
68384;SDS011;55336;43.062;25.626;2023-07-13T18:20:52;4.10;;;3.70;;
68384;SDS011;55336;43.062;25.626;2023-07-13T18:23:19;4.05;;;3.47;;
68384;SDS011;55336;43.062;25.626;2023-07-13T18:25:47;3.88;;;2.97;;
68384;SDS011;55336;43.062;25.626;2023-07-13T18:28:16;3.60;;;3.30;;
68384;SDS011;55336;43.062;25.626;2023-07-13T18:30:49;3.25;;;2.92;;
68384;SDS011;55336;43.062;25.626;2023-07-13T18:33:22;3.75;;;2.83;;
68384;SDS011;55336;43.062;25.626;2023-07-13T18:35:49;3.33;;;3.03;;
68384;SDS011;55336;43.062;25.626;2023-07-13T18:38:20;3.50;;;3.20;;
68384;SDS011;55336;43.062;25.626;2023-07-13T18:40:50;3.45;;;3.15;;
68384;SDS011;55336;43.062;25.626;2023-07-13T18:43:16;3.75;;;3.45;;
68384;SDS011;55336;43.062;25.626;2023-07-13T18:45:42;3.88;;;3.17;;
68384;SDS011;55336;43.062;25.626;2023-07-13T18:48:13;3.83;;;3.53;;